This is the latest recevied weather packets stored in our database for station/object KF3BH. If no packets are shown the sender has not sent any weather packets the latest 10 day(s).
| Time | Temp. | Humidity | Pressure | Rain* | Wind** | Luminosity | Snow |
|---|---|---|---|---|---|---|---|
| 1777882226 | 7.22° C | 60% | 1013.7 hPa | 0 mm | - | 0 W/m² | - |
| 1777881025 | 7.22° C | 60% | 1013.8 hPa | 0 mm | - | 0 W/m² | - |
| 1777878025 | 7.22° C | 60% | 1013.8 hPa | 0 mm | - | 0 W/m² | - |
| 1777874425 | 7.78° C | 58% | 1013.8 hPa | 0 mm | - | 0 W/m² | - |
| 1777872626 | 7.78° C | 59% | 1013.9 hPa | 0 mm | - | 0 W/m² | - |
| 1777870825 | 8.33° C | 57% | 1013.9 hPa | 0 mm | - | 0 W/m² | - |
| 1777862425 | 10.56° C | 48% | 1013.4 hPa | 0 mm | - | 0 W/m² | - |
| 1777861225 | 10.56° C | 47% | 1013.6 hPa | 0 mm | - | 0 W/m² | - |
| 1777857625 | 11.11° C | 45% | 1013.3 hPa | 0 mm | - | 0 W/m² | - |
| 1777857025 | 11.11° C | 44% | 1013.2 hPa | 0 mm | - | 0 W/m² | - |
| 1777855226 | 11.67° C | 43% | 1012.9 hPa | 0 mm | - | 0 W/m² | - |
| 1777852225 | 13.33° C | 39% | 1012.5 hPa | 0 mm | - | 12 W/m² | - |
| 1777850425 | 13.89° C | 37% | 1012.3 hPa | 0 mm | - | 32 W/m² | - |
| 1777842625 | 14.44° C | 34% | 1012.1 hPa | 0 mm | - | 468 W/m² | - |
| 1777839625 | 14.44° C | 33% | 1012.3 hPa | 0 mm | - | 594 W/m² | - |
| 1777835425 | 13.89° C | 34% | 1013.1 hPa | 0 mm | - | 165 W/m² | - |
| 1777831825 | 12.22° C | 36% | 1013.7 hPa | 0 mm | - | 789 W/m² | - |
| 1777828225 | 11.67° C | 39% | 1014.3 hPa | 0 mm | - | 257 W/m² | - |
| 1777823425 | 9.44° C | 43% | 1015 hPa | 0 mm | - | 962 W/m² | - |
| 1777821025 | 9.44° C | 41% | 1015.2 hPa | 0 mm | - | 826 W/m² | - |
| 1777818025 | 7.78° C | 50% | 1015.5 hPa | 0 mm | - | 656 W/m² | - |
| 1777817425 | 7.22° C | 48% | 1015.5 hPa | 0 mm | - | 573 W/m² | - |
| 1777815625 | 6.67° C | 53% | 1015.6 hPa | 0 mm | - | 501 W/m² | - |
| 1777815026 | 6.67° C | 57% | 1015.6 hPa | 0 mm | - | 483 W/m² | - |
| 1777813225 | 5.56° C | 62% | 1015.8 hPa | 0 mm | - | 403 W/m² | - |
* Rain latest hour (hover to see other rain measurements)
** Current wind speed in m/s (hover to see current wind gust speed)